Time;durP1;ratioP1;P1;durP2;ratioP2;P2;SDS_P1;SDS_P2;PMS_P1;PMS_P2;Temp;Humidity;BMP_temperature;BMP_pressure;BME280_temperature;BME280_humidity;BME280_pressure;Samples;Min_cycle;Max_cycle;Signal;HPM_P1;HPM_P2
2021/05/03 00:01:28;;;;;;;7.37;5.87;;;6.80;99.90;;;;;;5010717;28;20446;-76
2021/05/03 00:03:55;;;;;;;7.20;5.70;;;6.80;99.90;;;;;;5010573;28;20969;-75
2021/05/03 00:06:21;;;;;;;8.60;7.70;;;6.70;99.90;;;;;;5010606;28;20809;-75
2021/05/03 00:08:48;;;;;;;7.40;6.20;;;6.70;99.90;;;;;;5010574;28;20937;-74
2021/05/03 00:11:15;;;;;;;7.20;6.47;;;6.60;99.90;;;;;;5010605;28;20477;-77
2021/05/03 00:13:41;;;;;;;7.63;6.83;;;6.50;99.90;;;;;;5009986;28;20903;-75
2021/05/03 00:16:07;;;;;;;6.80;6.03;;;6.40;99.90;;;;;;5009939;28;20457;-74
2021/05/03 00:18:34;;;;;;;7.10;6.07;;;6.30;99.90;;;;;;5010214;28;20486;-75
2021/05/03 00:21:01;;;;;;;7.83;6.60;;;6.30;99.90;;;;;;5009965;28;20580;-74
2021/05/03 00:23:27;;;;;;;8.30;6.77;;;6.20;99.90;;;;;;5010284;28;20446;-74
2021/05/03 00:25:55;;;;;;;7.20;6.50;;;6.00;99.90;;;;;;5009953;28;20450;-74
2021/05/03 00:28:21;;;;;;;8.17;6.00;;;5.90;99.90;;;;;;5009706;28;20577;-76
2021/05/03 00:30:48;;;;;;;9.30;6.50;;;5.80;99.90;;;;;;5009790;28;20877;-75
2021/05/03 00:33:14;;;;;;;10.37;7.13;;;5.70;99.90;;;;;;5010375;28;20545;-75
2021/05/03 00:35:40;;;;;;;11.93;8.70;;;5.60;99.90;;;;;;5009517;28;20478;-75
2021/05/03 00:38:07;;;;;;;6.97;6.13;;;5.60;99.90;;;;;;5010033;28;20468;-74
2021/05/03 00:40:33;;;;;;;9.10;7.33;;;5.50;99.90;;;;;;5009987;28;20472;-75
2021/05/03 00:43:00;;;;;;;9.80;7.70;;;5.60;99.90;;;;;;5009984;28;20477;-75
2021/05/03 00:45:29;;;;;;;8.50;7.60;;;5.50;99.90;;;;;;5009760;28;20474;-74
2021/05/03 00:47:56;;;;;;;8.03;7.23;;;5.50;99.90;;;;;;5009689;28;20486;-75
2021/05/03 00:50:24;;;;;;;8.50;7.50;;;5.60;99.90;;;;;;5009971;28;20540;-74
2021/05/03 00:52:51;;;;;;;9.07;7.50;;;5.70;99.90;;;;;;5009688;28;20485;-74
2021/05/03 00:55:18;;;;;;;11.90;8.53;;;5.80;99.90;;;;;;5009280;28;20681;-74
2021/05/03 00:57:44;;;;;;;8.97;8.07;;;5.90;99.90;;;;;;5009801;28;20449;-75
2021/05/03 01:00:14;;;;;;;8.80;7.90;;;5.90;99.90;;;;;;5009539;28;20452;-74
2021/05/03 01:02:41;;;;;;;9.30;7.77;;;6.00;99.90;;;;;;5009646;28;20460;-74
2021/05/03 01:05:08;;;;;;;9.90;6.93;;;6.00;99.90;;;;;;5009189;28;20980;-74
2021/05/03 01:07:35;;;;;;;9.10;8.20;;;6.00;99.90;;;;;;5010455;28;20482;-73
2021/05/03 01:10:01;;;;;;;9.13;7.97;;;6.00;99.90;;;;;;5011428;28;20485;-73
2021/05/03 01:12:28;;;;;;;8.50;7.40;;;6.00;99.90;;;;;;5007803;28;20454;-73
2021/05/03 01:14:54;;;;;;;8.63;6.93;;;6.00;99.90;;;;;;5012081;28;20476;-73
2021/05/03 01:17:30;;;;;;;7.80;7.10;;;6.00;99.90;;;;;;5012361;28;20541;-78
2021/05/03 01:19:57;;;;;;;9.90;7.60;;;5.90;99.90;;;;;;5014302;28;20457;-76
2021/05/03 01:22:24;;;;;;;12.50;9.70;;;5.80;99.90;;;;;;5014436;28;20492;-76
2021/05/03 01:24:51;;;;;;;12.80;8.83;;;5.80;99.90;;;;;;5009059;28;20564;-77
2021/05/03 01:27:18;;;;;;;10.77;9.03;;;5.70;99.90;;;;;;5009248;28;20496;-73
2021/05/03 01:29:44;;;;;;;10.50;9.47;;;5.60;99.90;;;;;;5009929;28;20477;-75
2021/05/03 01:32:10;;;;;;;9.43;8.43;;;5.50;99.90;;;;;;5009175;28;20453;-76
2021/05/03 01:34:40;;;;;;;10.20;8.03;;;5.50;99.90;;;;;;5008707;28;20564;-75
2021/05/03 01:37:06;;;;;;;10.03;8.63;;;5.40;99.90;;;;;;5008952;28;20450;-76
2021/05/03 01:39:33;;;;;;;10.40;9.30;;;5.20;99.90;;;;;;5009384;28;20536;-75
2021/05/03 01:42:00;;;;;;;10.10;9.00;;;5.00;99.90;;;;;;5010648;28;20528;-76
2021/05/03 01:44:29;;;;;;;10.87;9.77;;;4.90;99.90;;;;;;5012360;28;20603;-74
2021/05/03 01:46:55;;;;;;;10.10;8.57;;;4.80;99.90;;;;;;5013079;28;20575;-74
2021/05/03 01:49:21;;;;;;;11.53;10.37;;;4.80;99.90;;;;;;5012608;28;20460;-75
2021/05/03 01:51:48;;;;;;;10.83;9.73;;;4.70;99.90;;;;;;5013357;28;20976;-73
2021/05/03 01:54:15;;;;;;;10.40;8.53;;;4.70;99.90;;;;;;5012449;28;20492;-73
2021/05/03 01:56:42;;;;;;;10.53;8.87;;;4.60;99.90;;;;;;5012627;28;20941;-72
2021/05/03 01:59:08;;;;;;;11.40;9.10;;;4.60;99.90;;;;;;5012898;28;20458;-76
2021/05/03 02:01:38;;;;;;;11.30;9.40;;;4.70;99.90;;;;;;5012668;28;20536;-74
2021/05/03 02:04:06;;;;;;;10.83;9.33;;;4.80;99.90;;;;;;5011857;28;20477;-75
2021/05/03 02:06:32;;;;;;;12.10;9.63;;;4.80;99.90;;;;;;5012262;28;20983;-76
2021/05/03 02:08:58;;;;;;;8.80;7.90;;;4.80;99.90;;;;;;5012338;28;20453;-75
2021/05/03 02:11:25;;;;;;;11.30;8.50;;;4.80;99.90;;;;;;5012293;28;20446;-75
2021/05/03 02:13:52;;;;;;;10.53;9.40;;;4.70;99.90;;;;;;5012140;28;20495;-74
2021/05/03 02:16:18;;;;;;;10.50;8.90;;;4.70;99.90;;;;;;5012300;28;20446;-75
2021/05/03 02:18:44;;;;;;;9.30;8.40;;;4.70;99.90;;;;;;5012227;28;20484;-75
2021/05/03 02:21:11;;;;;;;10.03;8.73;;;4.60;99.90;;;;;;5012471;28;20540;-74
2021/05/03 02:23:37;;;;;;;10.50;9.40;;;4.70;99.90;;;;;;5012540;28;21072;-75
2021/05/03 02:26:03;;;;;;;11.53;9.97;;;4.60;99.90;;;;;;5011662;28;20999;-74
2021/05/03 02:28:30;;;;;;;13.93;11.73;;;4.60;99.90;;;;;;5012311;28;20485;-74
2021/05/03 02:30:57;;;;;;;10.27;9.17;;;4.60;99.90;;;;;;5012384;28;20802;-75
2021/05/03 02:33:23;;;;;;;11.07;9.37;;;4.50;99.90;;;;;;5012118;28;20473;-75
2021/05/03 02:35:50;;;;;;;12.60;10.13;;;4.40;99.90;;;;;;5012289;28;20449;-75
2021/05/03 02:38:17;;;;;;;12.80;10.00;;;4.40;99.90;;;;;;5012329;28;20445;-75
2021/05/03 02:40:43;;;;;;;10.80;9.23;;;4.30;99.90;;;;;;5008356;28;20930;-76
2021/05/03 02:43:10;;;;;;;11.67;10.57;;;4.20;99.90;;;;;;5011890;28;20504;-75
2021/05/03 02:45:36;;;;;;;13.97;11.83;;;4.10;99.90;;;;;;5011843;28;20573;-74
2021/05/03 02:48:04;;;;;;;12.60;10.80;;;4.10;99.90;;;;;;5011949;28;20576;-74
2021/05/03 02:50:31;;;;;;;13.23;11.83;;;4.10;99.90;;;;;;5011778;28;20481;-75
2021/05/03 02:52:57;;;;;;;12.77;11.30;;;4.10;99.90;;;;;;5011989;28;20449;-75
2021/05/03 02:55:24;;;;;;;12.23;10.50;;;4.00;99.90;;;;;;5011888;28;20493;-75
2021/05/03 02:57:51;;;;;;;15.00;12.70;;;3.90;99.90;;;;;;5012042;28;20650;-74
2021/05/03 03:00:23;;;;;;;13.83;12.33;;;3.80;99.90;;;;;;5011966;28;20491;-74
2021/05/03 03:02:49;;;;;;;15.40;12.80;;;3.80;99.90;;;;;;5011698;28;20450;-74
2021/05/03 03:05:17;;;;;;;19.43;13.60;;;3.80;99.90;;;;;;5011374;28;20465;-74
2021/05/03 03:07:43;;;;;;;14.90;12.10;;;3.70;99.90;;;;;;5011312;28;20478;-74
2021/05/03 03:10:10;;;;;;;15.57;11.83;;;3.70;99.90;;;;;;5011521;28;20511;-74
2021/05/03 03:12:37;;;;;;;19.10;12.57;;;3.70;99.90;;;;;;5011088;28;20441;-75
2021/05/03 03:15:03;;;;;;;15.13;12.33;;;3.70;99.90;;;;;;5011035;28;20477;-74
2021/05/03 03:17:30;;;;;;;12.93;11.60;;;3.70;99.90;;;;;;5011545;28;20457;-74
2021/05/03 03:19:56;;;;;;;16.20;13.37;;;3.70;99.90;;;;;;5011226;28;20941;-76
2021/05/03 03:22:23;;;;;;;15.77;13.90;;;3.80;99.90;;;;;;5011353;28;20836;-76
2021/05/03 03:24:50;;;;;;;20.60;15.83;;;3.80;99.90;;;;;;5011183;28;20607;-75
2021/05/03 03:27:16;;;;;;;17.37;14.80;;;3.80;99.90;;;;;;5011058;28;20640;-76
2021/05/03 03:29:42;;;;;;;17.03;14.20;;;3.80;99.90;;;;;;5011221;28;20508;-76
2021/05/03 03:32:09;;;;;;;13.80;12.37;;;3.80;99.90;;;;;;5010896;28;20837;-76
2021/05/03 03:34:35;;;;;;;13.53;11.33;;;3.80;99.90;;;;;;5010294;28;21049;-75
2021/05/03 03:37:01;;;;;;;16.40;11.97;;;3.80;99.90;;;;;;5010999;28;21091;-75
2021/05/03 03:39:29;;;;;;;13.70;12.03;;;3.70;99.90;;;;;;5010836;28;20536;-75
2021/05/03 03:41:55;;;;;;;16.27;12.60;;;3.60;99.90;;;;;;5011209;28;21058;-76
2021/05/03 03:44:21;;;;;;;15.03;11.60;;;3.50;99.90;;;;;;5010550;28;20576;-76
2021/05/03 03:46:50;;;;;;;15.47;13.10;;;3.40;99.90;;;;;;5010943;28;20450;-75
2021/05/03 03:49:17;;;;;;;14.67;12.73;;;3.40;99.90;;;;;;5010652;28;20895;-75
2021/05/03 03:51:43;;;;;;;17.43;14.30;;;3.40;99.90;;;;;;5010813;28;20542;-75
2021/05/03 03:54:10;;;;;;;20.20;14.27;;;3.50;99.90;;;;;;5010782;28;20560;-75
2021/05/03 03:56:37;;;;;;;18.80;14.07;;;3.60;99.90;;;;;;5010775;28;20454;-75
2021/05/03 03:59:06;;;;;;;17.90;13.53;;;3.60;99.90;;;;;;5011189;28;20477;-74
2021/05/03 04:01:33;;;;;;;18.13;13.97;;;3.60;99.90;;;;;;5010805;28;20449;-75
2021/05/03 04:04:03;;;;;;;16.80;14.40;;;3.50;99.90;;;;;;5009721;28;20479;-75
2021/05/03 04:06:40;;;;;;;14.67;13.13;;;3.60;99.90;;;;;;5010766;28;20461;-74
2021/05/03 04:09:09;;;;;;;18.73;13.20;;;3.50;99.90;;;;;;5004402;28;20583;-74
2021/05/03 04:12:07;;;;;;;17.70;13.87;;;3.60;99.90;;;;;;5010299;28;20450;-74
2021/05/03 04:25:40;;;;;;;15.47;12.87;;;3.60;99.90;;;;;;5009446;28;20446;-75
2021/05/03 04:28:08;;;;;;;15.67;13.97;;;3.70;99.90;;;;;;5009693;28;20579;-76
2021/05/03 04:30:35;;;;;;;19.20;15.00;;;3.70;99.90;;;;;;5009918;28;20814;-76
2021/05/03 04:33:02;;;;;;;19.23;14.43;;;3.70;99.90;;;;;;5009739;28;20456;-75
2021/05/03 04:35:29;;;;;;;15.00;13.27;;;3.70;99.90;;;;;;5009274;28;20469;-75
2021/05/03 04:37:55;;;;;;;14.93;13.00;;;3.60;99.90;;;;;;5009645;28;20450;-75
2021/05/03 04:40:22;;;;;;;13.80;12.40;;;3.60;99.90;;;;;;5009408;28;20991;-75
2021/05/03 04:42:48;;;;;;;19.13;15.70;;;3.60;99.90;;;;;;5006466;28;20442;-74
2021/05/03 04:45:16;;;;;;;17.33;12.93;;;3.50;99.90;;;;;;5006857;28;20971;-74
2021/05/03 04:47:43;;;;;;;18.20;13.80;;;3.60;99.90;;;;;;5010058;28;20988;-75
2021/05/03 04:50:11;;;;;;;16.33;13.93;;;3.60;99.90;;;;;;5010005;28;20446;-75
2021/05/03 04:52:38;;;;;;;18.10;13.00;;;3.50;99.90;;;;;;5010551;28;20461;-75
2021/05/03 04:55:06;;;;;;;17.40;13.63;;;3.60;99.90;;;;;;5009992;28;20964;-72
2021/05/03 04:57:32;;;;;;;16.37;13.60;;;3.70;99.90;;;;;;5010719;28;20442;-75
2021/05/03 04:59:59;;;;;;;14.93;12.87;;;3.70;99.90;;;;;;5010601;28;20456;-74
2021/05/03 05:02:26;;;;;;;15.87;13.03;;;3.70;99.90;;;;;;5010592;28;20551;-77
2021/05/03 05:04:53;;;;;;;14.30;11.70;;;3.60;99.90;;;;;;5010312;28;20545;-76
2021/05/03 05:07:20;;;;;;;18.87;14.40;;;3.70;99.90;;;;;;5011157;28;20566;-74
2021/05/03 05:09:47;;;;;;;15.77;12.93;;;3.80;99.90;;;;;;5011619;28;20453;-75
2021/05/03 05:12:13;;;;;;;17.60;13.67;;;3.90;99.90;;;;;;5010932;28;20961;-73
2021/05/03 05:14:40;;;;;;;18.83;14.47;;;4.00;99.90;;;;;;5006486;28;20489;-75
2021/05/03 05:17:06;;;;;;;18.10;14.67;;;4.00;99.90;;;;;;5001273;28;20490;-77
2021/05/03 05:19:34;;;;;;;18.20;13.70;;;4.10;99.90;;;;;;5011729;28;20552;-75
2021/05/03 05:22:00;;;;;;;16.80;14.07;;;4.10;99.90;;;;;;5010382;28;21163;-77
2021/05/03 05:24:26;;;;;;;19.87;15.43;;;4.10;99.90;;;;;;5012004;28;21133;-76
2021/05/03 05:26:53;;;;;;;18.27;13.80;;;4.30;99.90;;;;;;5012627;28;20933;-73
2021/05/03 05:29:19;;;;;;;18.00;15.10;;;4.50;99.90;;;;;;5012779;28;20819;-75
2021/05/03 05:31:46;;;;;;;17.63;14.30;;;4.60;99.90;;;;;;5013086;28;20778;-75
2021/05/03 05:34:12;;;;;;;16.77;14.83;;;4.70;99.90;;;;;;5012760;28;20492;-75
2021/05/03 05:36:39;;;;;;;16.93;14.33;;;4.90;99.90;;;;;;5008288;28;20596;-73
2021/05/03 05:39:07;;;;;;;16.03;14.37;;;4.90;99.90;;;;;;5011988;28;20640;-75
2021/05/03 05:41:33;;;;;;;18.43;14.43;;;5.00;99.90;;;;;;5011837;28;20474;-73
2021/05/03 05:44:00;;;;;;;14.73;13.20;;;5.20;99.90;;;;;;5011952;28;20523;-74
2021/05/03 05:46:26;;;;;;;16.87;15.07;;;5.40;99.90;;;;;;5011998;28;20540;-74
2021/05/03 05:48:53;;;;;;;14.80;12.80;;;5.60;99.90;;;;;;5010755;28;20488;-75
2021/05/03 05:51:19;;;;;;;17.47;13.90;;;5.80;99.90;;;;;;5011684;28;20504;-77
2021/05/03 05:53:46;;;;;;;13.93;12.37;;;5.90;99.90;;;;;;5011474;28;21048;-75
2021/05/03 05:56:15;;;;;;;13.10;11.80;;;5.90;99.90;;;;;;5011882;28;20445;-77
2021/05/03 05:58:41;;;;;;;14.80;12.83;;;5.80;99.90;;;;;;5011153;28;20450;-77
2021/05/03 06:01:07;;;;;;;14.10;12.60;;;5.70;99.90;;;;;;5011457;28;20456;-78
2021/05/03 06:03:34;;;;;;;16.57;14.17;;;5.60;99.90;;;;;;5010902;28;20449;-75
2021/05/03 06:06:00;;;;;;;19.97;17.87;;;5.70;99.90;;;;;;5011216;28;20453;-76
2021/05/03 06:08:27;;;;;;;17.10;15.30;;;5.60;99.90;;;;;;5011040;28;20496;-77
2021/05/03 06:10:54;;;;;;;16.73;15.03;;;5.60;99.90;;;;;;5011650;28;20532;-75
2021/05/03 06:13:21;;;;;;;16.57;14.80;;;5.70;99.90;;;;;;5006297;28;20497;-76
2021/05/03 06:15:47;;;;;;;13.53;12.13;;;5.80;99.90;;;;;;5009489;28;20461;-75
2021/05/03 06:18:13;;;;;;;18.30;15.53;;;6.00;99.90;;;;;;5011083;28;20543;-74
2021/05/03 06:20:40;;;;;;;16.57;14.20;;;6.10;99.90;;;;;;5010858;28;21087;-76
2021/05/03 06:23:08;;;;;;;18.03;14.70;;;6.20;99.90;;;;;;5010746;28;20456;-75
2021/05/03 06:25:35;;;;;;;17.47;14.40;;;6.30;99.90;;;;;;5009678;28;21095;-76
2021/05/03 06:28:02;;;;;;;15.50;13.80;;;6.50;99.90;;;;;;5009161;28;20564;-74
2021/05/03 06:30:28;;;;;;;14.83;13.13;;;6.60;99.90;;;;;;5010004;28;20449;-75
2021/05/03 06:32:55;;;;;;;14.13;12.67;;;6.80;99.90;;;;;;5010312;28;20451;-75
2021/05/03 06:35:23;;;;;;;16.13;14.10;;;7.00;99.90;;;;;;5008550;28;20553;-74
2021/05/03 06:37:50;;;;;;;15.40;13.03;;;7.10;99.90;;;;;;5009490;28;20446;-76
2021/05/03 06:40:17;;;;;;;14.13;12.77;;;7.30;99.90;;;;;;5010216;28;20516;-76
2021/05/03 06:42:43;;;;;;;13.90;12.33;;;7.40;99.90;;;;;;5010176;28;20448;-72
2021/05/03 06:45:12;;;;;;;13.50;11.77;;;7.60;99.90;;;;;;5008784;28;20481;-75
2021/05/03 06:47:38;;;;;;;15.60;13.90;;;7.70;99.90;;;;;;5010594;28;20513;-72
2021/05/03 06:50:07;;;;;;;15.03;12.20;;;7.80;99.90;;;;;;5010110;28;20960;-76
2021/05/03 06:52:33;;;;;;;14.70;12.67;;;7.90;99.90;;;;;;5009386;28;20444;-74
2021/05/03 06:54:59;;;;;;;12.80;11.37;;;8.00;99.90;;;;;;5008698;28;20561;-75
2021/05/03 06:57:26;;;;;;;13.30;10.90;;;8.20;99.90;;;;;;5009605;28;20442;-75
2021/05/03 06:59:52;;;;;;;13.80;12.27;;;8.10;99.90;;;;;;5009368;28;20537;-71
2021/05/03 07:02:21;;;;;;;13.30;10.80;;;8.20;99.90;;;;;;5009256;28;20456;-71
2021/05/03 07:04:48;;;;;;;12.17;10.23;;;8.40;99.90;;;;;;5008347;28;20474;-72
2021/05/03 07:07:14;;;;;;;12.20;10.57;;;8.50;99.90;;;;;;5009010;28;20469;-72
2021/05/03 07:09:42;;;;;;;14.30;10.80;;;8.60;99.90;;;;;;5009691;28;20569;-73
2021/05/03 07:12:09;;;;;;;13.23;10.60;;;8.60;99.90;;;;;;5009941;28;20457;-73
2021/05/03 07:14:36;;;;;;;14.93;10.60;;;8.70;99.90;;;;;;5008763;28;20481;-73
2021/05/03 07:17:04;;;;;;;11.47;10.27;;;8.80;99.90;;;;;;5008441;28;20549;-74
2021/05/03 07:19:31;;;;;;;12.63;10.37;;;8.90;99.90;;;;;;5009035;28;20454;-73
2021/05/03 07:21:58;;;;;;;12.30;11.00;;;9.00;99.90;;;;;;5008930;28;20454;-73
2021/05/03 07:24:24;;;;;;;12.00;9.83;;;9.00;99.90;;;;;;5008758;28;20508;-73
2021/05/03 07:26:51;;;;;;;10.50;8.70;;;9.10;99.90;;;;;;5008230;28;20519;-74
2021/05/03 07:29:18;;;;;;;9.83;8.47;;;9.20;99.90;;;;;;5008811;28;20485;-73
2021/05/03 07:31:44;;;;;;;10.60;9.50;;;9.20;99.90;;;;;;5009067;28;20547;-73
2021/05/03 07:34:11;;;;;;;11.60;8.53;;;9.40;99.90;;;;;;5008098;28;20469;-73
2021/05/03 07:36:38;;;;;;;10.63;9.27;;;9.60;99.90;;;;;;5008115;28;20454;-74
2021/05/03 07:39:06;;;;;;;12.07;9.53;;;9.70;99.90;;;;;;5007960;28;20531;-76
2021/05/03 07:41:32;;;;;;;9.70;8.80;;;9.80;99.90;;;;;;5008732;28;20446;-76
2021/05/03 07:43:59;;;;;;;9.60;8.60;;;9.80;99.90;;;;;;5007720;28;21077;-75
2021/05/03 07:46:26;;;;;;;11.23;9.47;;;9.80;99.90;;;;;;5008345;28;20480;-75
2021/05/03 07:48:53;;;;;;;11.20;10.10;;;9.70;99.90;;;;;;5008772;28;21340;-75
2021/05/03 07:51:20;;;;;;;9.87;8.67;;;9.70;99.90;;;;;;5008745;28;21267;-74
2021/05/03 07:53:48;;;;;;;10.20;8.70;;;10.00;99.90;;;;;;5008781;28;20501;-73
2021/05/03 07:56:15;;;;;;;10.43;9.40;;;10.20;99.90;;;;;;5008063;28;20529;-72
2021/05/03 07:58:42;;;;;;;9.93;8.83;;;10.30;99.90;;;;;;5009134;28;20988;-74
2021/05/03 08:01:08;;;;;;;10.23;9.10;;;10.20;99.90;;;;;;5009199;28;20449;-73
2021/05/03 08:03:38;;;;;;;11.07;9.97;;;10.10;99.90;;;;;;5008770;28;20935;-74
2021/05/03 08:06:06;;;;;;;9.17;8.07;;;10.10;99.90;;;;;;5007328;28;20461;-74
2021/05/03 08:08:32;;;;;;;10.53;9.30;;;10.40;99.90;;;;;;5008830;28;20477;-74
2021/05/03 08:11:01;;;;;;;11.43;7.77;;;10.70;99.90;;;;;;5008779;28;20451;-74
2021/05/03 08:13:28;;;;;;;8.80;8.00;;;11.20;99.90;;;;;;5008447;28;20457;-74
2021/05/03 08:15:57;;;;;;;7.57;6.87;;;11.80;99.90;;;;;;5007097;28;20536;-72
2021/05/03 08:18:23;;;;;;;7.80;7.10;;;12.20;99.90;;;;;;5008695;28;20508;-73
2021/05/03 08:20:50;;;;;;;9.67;8.73;;;12.30;99.90;;;;;;5008503;28;20517;-75
2021/05/03 08:23:19;;;;;;;8.73;7.83;;;12.20;99.90;;;;;;5008487;28;20472;-71
2021/05/03 08:25:48;;;;;;;10.27;8.50;;;12.20;99.80;;;;;;5007215;28;20523;-76
2021/05/03 08:28:15;;;;;;;9.33;8.40;;;12.10;99.90;;;;;;5008522;28;20488;-75
2021/05/03 08:30:42;;;;;;;9.17;7.60;;;12.10;99.40;;;;;;5008647;28;20450;-75
2021/05/03 08:33:09;;;;;;;7.57;6.87;;;12.10;99.20;;;;;;5008299;28;20798;-75
2021/05/03 08:35:35;;;;;;;8.07;7.27;;;12.00;99.70;;;;;;5007405;28;20545;-72
2021/05/03 08:38:03;;;;;;;8.30;7.50;;;12.10;98.90;;;;;;5008290;28;20504;-74
2021/05/03 08:40:30;;;;;;;9.27;6.83;;;12.20;98.20;;;;;;5008893;28;20500;-74
2021/05/03 08:42:57;;;;;;;9.20;7.60;;;12.30;98.80;;;;;;4989010;28;20504;-72
2021/05/03 08:45:24;;;;;;;8.53;7.10;;;12.50;99.60;;;;;;4988815;28;20473;-73
2021/05/03 08:48:03;;;;;;;8.53;7.33;;;12.70;97.50;;;;;;5004746;28;20486;-74
2021/05/03 08:50:46;;;;;;;7.70;7.00;;;12.80;96.80;;;;;;5007006;28;20561;-73
2021/05/03 08:53:14;;;;;;;7.97;7.17;;;12.80;97.40;;;;;;4988985;28;20941;-74
2021/05/03 08:55:41;;;;;;;8.10;7.30;;;12.70;97.30;;;;;;4988160;28;21050;-75
2021/05/03 08:58:08;;;;;;;8.13;7.40;;;12.50;98.60;;;;;;4988250;28;20490;-75
2021/05/03 09:00:36;;;;;;;8.40;7.60;;;12.30;98.00;;;;;;5007694;28;20815;-76
2021/05/03 09:03:05;;;;;;;9.17;8.17;;;12.30;97.10;;;;;;5008732;28;20499;-74
2021/05/03 09:05:34;;;;;;;7.43;6.73;;;12.30;97.40;;;;;;5007285;28;20530;-76
2021/05/03 09:08:00;;;;;;;8.93;7.43;;;12.60;98.10;;;;;;5008365;28;20481;-75
2021/05/03 09:10:28;;;;;;;9.20;7.80;;;13.20;98.10;;;;;;5008389;28;20491;-75
2021/05/03 09:12:55;;;;;;;8.27;7.47;;;13.60;96.50;;;;;;5008065;28;20445;-75
2021/05/03 09:15:24;;;;;;;8.60;7.53;;;14.00;97.20;;;;;;5006571;28;20516;-76
2021/05/03 09:17:52;;;;;;;9.30;8.30;;;14.20;96.10;;;;;;5007249;28;20538;-75
2021/05/03 09:20:20;;;;;;;8.00;7.20;;;14.50;95.10;;;;;;5007860;28;20482;-75
2021/05/03 09:22:50;;;;;;;8.80;7.90;;;14.50;93.30;;;;;;5008100;28;20453;-75
2021/05/03 09:25:24;;;;;;;7.27;6.57;;;14.30;94.00;;;;;;5007199;28;20474;-75
2021/05/03 09:28:05;;;;;;;8.00;7.20;;;14.10;94.00;;;;;;5007950;28;20554;-74
2021/05/03 09:30:35;;;;;;;12.30;7.93;;;13.90;93.30;;;;;;5008025;28;20958;-75
2021/05/03 09:33:14;;;;;;;8.53;7.63;;;13.70;94.20;;;;;;5008317;28;20449;-75
2021/05/03 09:35:46;;;;;;;8.53;7.70;;;13.70;94.90;;;;;;5007694;28;20497;-75
2021/05/03 09:38:43;;;;;;;8.47;7.40;;;13.60;95.10;;;;;;5008451;28;20481;-75
2021/05/03 09:41:16;;;;;;;7.93;7.23;;;13.40;93.50;;;;;;4931984;29;20449;-76
2021/05/03 09:43:44;;;;;;;8.37;7.50;;;13.50;95.20;;;;;;4998344;28;20469;-75
2021/05/03 09:46:35;;;;;;;7.67;6.97;;;13.80;93.70;;;;;;5012282;28;20473;-75
2021/05/03 09:49:06;;;;;;;7.70;6.90;;;13.80;92.80;;;;;;5010605;28;20516;-75
2021/05/03 09:51:34;;;;;;;7.97;6.63;;;14.00;92.60;;;;;;5008546;28;20903;-75
2021/05/03 09:54:06;;;;;;;6.90;6.10;;;14.20;90.00;;;;;;5006545;28;20466;-75
2021/05/03 09:56:50;;;;;;;7.70;7.00;;;14.30;88.30;;;;;;5006680;28;20504;-75
2021/05/03 09:59:31;;;;;;;6.87;6.20;;;14.40;90.30;;;;;;5005068;28;20512;-76
2021/05/03 10:02:03;;;;;;;7.60;6.90;;;14.40;91.10;;;;;;5007031;28;20516;-77
2021/05/03 10:04:31;;;;;;;7.23;6.53;;;14.30;90.20;;;;;;5010970;28;20560;-77
2021/05/03 10:06:58;;;;;;;6.83;5.97;;;14.00;89.10;;;;;;5010328;28;20638;-76
2021/05/03 10:09:26;;;;;;;7.83;6.70;;;13.20;93.90;;;;;;5011666;28;20509;-75
2021/05/03 10:11:52;;;;;;;7.80;5.47;;;12.80;96.90;;;;;;5010320;28;20461;-76
2021/05/03 10:14:19;;;;;;;7.47;5.47;;;12.30;92.60;;;;;;5010118;28;20462;-76
2021/05/03 10:16:46;;;;;;;5.10;4.57;;;11.80;92.80;;;;;;5009588;28;20932;-75
2021/05/03 10:19:15;;;;;;;5.33;4.83;;;11.60;96.50;;;;;;5009727;28;20537;-74
2021/05/03 10:21:44;;;;;;;5.97;5.27;;;11.30;93.70;;;;;;5010189;28;20446;-74
2021/05/03 10:24:12;;;;;;;5.53;4.93;;;11.20;94.10;;;;;;5009687;28;20465;-73
2021/05/03 10:26:39;;;;;;;6.30;5.23;;;11.30;94.10;;;;;;5009324;28;20481;-74
2021/05/03 10:29:06;;;;;;;5.50;5.00;;;11.50;96.10;;;;;;5010323;28;20489;-75
2021/05/03 10:31:56;;;;;;;5.90;5.30;;;11.90;94.10;;;;;;5010989;28;20453;-72
2021/05/03 10:34:44;;;;;;;5.50;5.00;;;12.40;92.90;;;;;;5009457;28;20462;-75
2021/05/03 10:37:50;;;;;;;6.20;4.93;;;13.40;92.90;;;;;;5010510;28;20448;-74
2021/05/03 10:40:48;;;;;;;5.40;4.57;;;14.00;90.70;;;;;;5009645;28;21241;-73
2021/05/03 10:43:18;;;;;;;5.30;4.40;;;14.30;84.10;;;;;;5010706;28;20453;-75
2021/05/03 10:45:55;;;;;;;5.87;4.63;;;14.40;81.80;;;;;;5009822;28;20469;-74
2021/05/03 10:48:28;;;;;;;7.20;6.00;;;14.40;87.50;;;;;;5010446;28;20488;-75
2021/05/03 10:50:55;;;;;;;5.63;4.10;;;14.30;82.60;;;;;;5010313;28;20525;-74
2021/05/03 10:53:28;;;;;;;5.17;4.67;;;14.40;90.00;;;;;;5010143;28;20454;-74
2021/05/03 10:55:59;;;;;;;5.43;4.93;;;14.40;90.60;;;;;;5010152;28;20450;-74
2021/05/03 10:58:25;;;;;;;5.03;4.43;;;14.50;89.60;;;;;;5010169;28;21224;-74
2021/05/03 11:01:02;;;;;;;5.20;4.27;;;14.90;87.50;;;;;;5010434;28;21050;-74
2021/05/03 11:04:05;;;;;;;7.00;5.33;;;15.50;86.10;;;;;;5009863;28;20448;-74
2021/05/03 11:07:03;;;;;;;5.87;5.27;;;15.70;79.20;;;;;;5010374;28;20533;-74
2021/05/03 11:09:52;;;;;;;6.80;5.47;;;15.20;79.60;;;;;;5009992;28;20485;-73
2021/05/03 11:12:30;;;;;;;5.57;5.07;;;15.00;76.30;;;;;;5010925;28;20880;-73
2021/05/03 11:15:18;;;;;;;5.67;5.17;;;15.30;81.70;;;;;;5009449;28;20553;-74
2021/05/03 11:18:21;;;;;;;5.47;4.70;;;16.20;77.00;;;;;;5002969;28;20455;-71
2021/05/03 11:21:16;;;;;;;6.20;5.20;;;15.90;74.40;;;;;;5009199;28;21002;-72
2021/05/03 11:23:42;;;;;;;5.63;4.80;;;14.80;72.30;;;;;;5011540;28;20446;-75
2021/05/03 11:26:27;;;;;;;4.67;4.00;;;14.30;74.60;;;;;;5011723;28;20445;-72
2021/05/03 11:29:05;;;;;;;5.00;4.27;;;13.80;77.50;;;;;;5011855;28;20486;-76
2021/05/03 11:31:32;;;;;;;9.57;7.30;;;13.80;78.40;;;;;;5011853;28;21006;-74
2021/05/03 11:34:04;;;;;;;5.93;4.93;;;13.90;78.70;;;;;;5026703;22;20493;-68
2021/05/03 11:36:35;;;;;;;4.60;3.83;;;13.50;77.50;;;;;;5027895;28;20514;-68
2021/05/03 11:39:10;;;;;;;5.30;4.60;;;13.80;80.80;;;;;;5023644;28;21050;-67
2021/05/03 11:41:57;;;;;;;6.40;4.73;;;14.20;74.80;;;;;;5026482;28;20449;-68
2021/05/03 11:44:45;;;;;;;4.90;4.40;;;14.40;74.30;;;;;;5026314;28;20473;-68
2021/05/03 11:47:12;;;;;;;4.20;3.73;;;15.00;72.00;;;;;;5023368;28;20471;-68
2021/05/03 11:49:44;;;;;;;4.50;4.00;;;15.60;74.10;;;;;;5031797;28;20484;-68
2021/05/03 11:52:11;;;;;;;8.30;3.50;;;16.40;74.10;;;;;;5029326;28;20457;-68
2021/05/03 11:54:42;;;;;;;4.30;3.30;;;17.80;73.10;;;;;;5029118;28;20471;-67
2021/05/03 11:57:12;;;;;;;4.50;2.90;;;19.70;69.00;;;;;;5029518;28;20445;-66
2021/05/03 11:59:39;;;;;;;4.60;3.40;;;20.40;60.50;;;;;;5029284;28;20816;-69
2021/05/03 12:02:08;;;;;;;4.30;3.40;;;19.90;57.80;;;;;;5029672;28;20459;-67
2021/05/03 12:04:40;;;;;;;4.40;4.00;;;18.90;58.10;;;;;;5029009;28;20516;-66
2021/05/03 12:07:14;;;;;;;4.00;3.60;;;17.70;57.30;;;;;;5029224;28;20457;-67
2021/05/03 12:09:42;;;;;;;3.63;3.20;;;17.20;63.10;;;;;;5029655;28;20484;-68
2021/05/03 12:12:09;;;;;;;5.13;3.00;;;17.10;60.10;;;;;;5029907;28;20441;-66
2021/05/03 12:14:44;;;;;;;4.63;4.20;;;16.70;61.80;;;;;;5029437;28;20497;-68
2021/05/03 12:17:27;;;;;;;4.43;3.70;;;16.40;59.00;;;;;;5029999;28;20519;-66
2021/05/03 12:19:55;;;;;;;3.33;3.03;;;16.30;64.10;;;;;;5029593;28;20445;-66
2021/05/03 12:22:23;;;;;;;4.03;3.23;;;16.40;64.90;;;;;;5025410;28;20553;-67
2021/05/03 12:24:53;;;;;;;3.67;3.20;;;17.10;60.60;;;;;;5028638;28;20464;-67
2021/05/03 12:27:20;;;;;;;3.67;3.20;;;17.40;60.60;;;;;;5024775;28;20445;-67
2021/05/03 12:29:47;;;;;;;6.77;3.63;;;17.60;57.80;;;;;;5029339;28;20546;-67
2021/05/03 12:32:16;;;;;;;3.93;3.00;;;17.40;59.00;;;;;;5029277;28;20535;-66
2021/05/03 12:34:48;;;;;;;3.37;2.80;;;16.70;59.30;;;;;;5029278;28;20519;-67
2021/05/03 12:37:17;;;;;;;4.43;3.00;;;16.40;59.30;;;;;;5029597;28;20502;-69
2021/05/03 12:40:03;;;;;;;4.03;2.80;;;17.50;61.20;;;;;;5029229;28;20437;-66
2021/05/03 12:42:32;;;;;;;3.17;2.87;;;17.60;57.20;;;;;;5029420;28;20449;-68
2021/05/03 12:45:02;;;;;;;3.60;2.57;;;17.00;56.20;;;;;;5027933;28;20461;-66
2021/05/03 12:47:39;;;;;;;3.13;2.43;;;18.10;60.90;;;;;;5029379;28;20453;-66
2021/05/03 12:50:14;;;;;;;2.73;2.30;;;18.00;57.00;;;;;;5029223;28;20436;-66
2021/05/03 12:52:46;;;;;;;3.10;2.60;;;17.70;57.60;;;;;;5029456;28;20805;-69
2021/05/03 12:55:34;;;;;;;3.53;3.23;;;16.90;56.80;;;;;;5029262;28;20519;-66
2021/05/03 12:58:14;;;;;;;4.33;2.77;;;16.10;60.70;;;;;;5029289;28;20445;-66
2021/05/03 13:00:53;;;;;;;4.00;2.90;;;16.00;63.40;;;;;;5029512;28;20449;-67
2021/05/03 13:03:30;;;;;;;4.10;3.57;;;17.30;61.00;;;;;;5028983;28;20444;-67
2021/05/03 13:06:09;;;;;;;4.50;2.70;;;17.30;57.10;;;;;;5029404;28;20530;-67